高雄終端管制區 - 高雄雷達席

METAR RCKH 050900Z 25008KT 210V300 9999 FEW016 BKN200 32/24 Q1006 NOSIG RMK A2973=

站台狀態:Offline
最後更新:2020-07-05 17:00:01